sensor_id;sensor_type;location;lat;lon;timestamp;P1;durP1;ratioP1;P2;durP2;ratioP2
72493;SDS011;60520;49.182;-0.348;2023-06-14T00:00:48;3.97;;;3.20;;
72493;SDS011;60520;49.182;-0.348;2023-06-14T00:03:17;3.67;;;3.20;;
72493;SDS011;60520;49.182;-0.348;2023-06-14T00:05:47;4.10;;;3.38;;
72493;SDS011;60520;49.182;-0.348;2023-06-14T00:08:14;3.60;;;3.15;;
72493;SDS011;60520;49.182;-0.348;2023-06-14T00:10:41;4.15;;;3.60;;
72493;SDS011;60520;49.182;-0.348;2023-06-14T00:13:08;3.67;;;3.20;;
72493;SDS011;60520;49.182;-0.348;2023-06-14T00:15:35;3.97;;;3.58;;
72493;SDS011;60520;49.182;-0.348;2023-06-14T00:18:04;4.13;;;3.35;;
72493;SDS011;60520;49.182;-0.348;2023-06-14T00:20:32;4.00;;;3.10;;
72493;SDS011;60520;49.182;-0.348;2023-06-14T00:22:59;4.35;;;3.45;;
72493;SDS011;60520;49.182;-0.348;2023-06-14T00:25:26;4.53;;;3.53;;
72493;SDS011;60520;49.182;-0.348;2023-06-14T00:27:54;4.72;;;3.50;;
72493;SDS011;60520;49.182;-0.348;2023-06-14T00:30:22;3.45;;;3.10;;
72493;SDS011;60520;49.182;-0.348;2023-06-14T00:32:49;3.63;;;3.25;;
72493;SDS011;60520;49.182;-0.348;2023-06-14T00:35:17;5.10;;;3.45;;
72493;SDS011;60520;49.182;-0.348;2023-06-14T00:37:45;3.42;;;3.13;;
72493;SDS011;60520;49.182;-0.348;2023-06-14T00:40:12;3.65;;;3.25;;
72493;SDS011;60520;49.182;-0.348;2023-06-14T00:42:39;3.85;;;3.08;;
72493;SDS011;60520;49.182;-0.348;2023-06-14T00:45:06;5.10;;;3.42;;
72493;SDS011;60520;49.182;-0.348;2023-06-14T00:47:34;3.67;;;3.13;;
72493;SDS011;60520;49.182;-0.348;2023-06-14T00:50:02;3.83;;;3.25;;
72493;SDS011;60520;49.182;-0.348;2023-06-14T00:52:31;3.92;;;3.15;;
72493;SDS011;60520;49.182;-0.348;2023-06-14T00:54:58;4.53;;;3.67;;
72493;SDS011;60520;49.182;-0.348;2023-06-14T00:57:25;3.47;;;3.10;;
72493;SDS011;60520;49.182;-0.348;2023-06-14T00:59:54;3.60;;;3.20;;
72493;SDS011;60520;49.182;-0.348;2023-06-14T01:02:22;5.00;;;3.45;;
72493;SDS011;60520;49.182;-0.348;2023-06-14T01:04:49;3.85;;;3.45;;
72493;SDS011;60520;49.182;-0.348;2023-06-14T01:07:20;3.40;;;3.10;;
72493;SDS011;60520;49.182;-0.348;2023-06-14T01:09:54;3.97;;;3.25;;
72493;SDS011;60520;49.182;-0.348;2023-06-14T01:12:25;4.25;;;3.35;;
72493;SDS011;60520;49.182;-0.348;2023-06-14T01:14:56;4.32;;;3.42;;
72493;SDS011;60520;49.182;-0.348;2023-06-14T01:17:23;4.38;;;3.13;;
72493;SDS011;60520;49.182;-0.348;2023-06-14T01:19:52;4.95;;;3.60;;
72493;SDS011;60520;49.182;-0.348;2023-06-14T01:22:23;4.88;;;3.13;;
72493;SDS011;60520;49.182;-0.348;2023-06-14T01:24:52;3.70;;;3.30;;
72493;SDS011;60520;49.182;-0.348;2023-06-14T01:27:20;4.07;;;3.15;;
72493;SDS011;60520;49.182;-0.348;2023-06-14T01:29:48;3.80;;;3.38;;
72493;SDS011;60520;49.182;-0.348;2023-06-14T01:32:16;4.13;;;3.30;;
72493;SDS011;60520;49.182;-0.348;2023-06-14T01:34:43;4.32;;;3.30;;
72493;SDS011;60520;49.182;-0.348;2023-06-14T01:37:11;3.55;;;3.05;;
72493;SDS011;60520;49.182;-0.348;2023-06-14T01:39:39;4.82;;;3.15;;
72493;SDS011;60520;49.182;-0.348;2023-06-14T01:42:07;5.10;;;3.20;;
72493;SDS011;60520;49.182;-0.348;2023-06-14T01:44:36;5.28;;;3.38;;
72493;SDS011;60520;49.182;-0.348;2023-06-14T01:47:03;4.25;;;3.13;;
72493;SDS011;60520;49.182;-0.348;2023-06-14T01:49:32;4.68;;;3.38;;
72493;SDS011;60520;49.182;-0.348;2023-06-14T01:52:00;5.00;;;3.25;;
72493;SDS011;60520;49.182;-0.348;2023-06-14T01:54:27;4.70;;;3.47;;
72493;SDS011;60520;49.182;-0.348;2023-06-14T01:56:56;4.57;;;3.50;;
72493;SDS011;60520;49.182;-0.348;2023-06-14T01:59:24;4.25;;;3.15;;
72493;SDS011;60520;49.182;-0.348;2023-06-14T02:01:51;4.05;;;3.28;;
72493;SDS011;60520;49.182;-0.348;2023-06-14T02:04:18;3.80;;;3.40;;
72493;SDS011;60520;49.182;-0.348;2023-06-14T02:06:45;4.15;;;3.40;;
72493;SDS011;60520;49.182;-0.348;2023-06-14T02:09:12;3.35;;;2.95;;
72493;SDS011;60520;49.182;-0.348;2023-06-14T02:11:40;3.88;;;3.20;;
72493;SDS011;60520;49.182;-0.348;2023-06-14T02:14:07;4.20;;;3.17;;
72493;SDS011;60520;49.182;-0.348;2023-06-14T02:16:38;4.38;;;3.38;;
72493;SDS011;60520;49.182;-0.348;2023-06-14T02:19:05;4.10;;;3.17;;
72493;SDS011;60520;49.182;-0.348;2023-06-14T02:21:32;3.55;;;3.13;;
72493;SDS011;60520;49.182;-0.348;2023-06-14T02:23:59;3.78;;;3.22;;
72493;SDS011;60520;49.182;-0.348;2023-06-14T02:26:26;3.45;;;3.10;;
72493;SDS011;60520;49.182;-0.348;2023-06-14T02:28:54;4.65;;;3.30;;
72493;SDS011;60520;49.182;-0.348;2023-06-14T02:31:21;4.68;;;3.15;;
72493;SDS011;60520;49.182;-0.348;2023-06-14T02:33:49;3.40;;;2.97;;
72493;SDS011;60520;49.182;-0.348;2023-06-14T02:36:16;5.25;;;3.20;;
72493;SDS011;60520;49.182;-0.348;2023-06-14T02:38:43;4.00;;;3.22;;
72493;SDS011;60520;49.182;-0.348;2023-06-14T02:41:11;4.75;;;3.40;;
72493;SDS011;60520;49.182;-0.348;2023-06-14T02:43:38;3.40;;;3.10;;
72493;SDS011;60520;49.182;-0.348;2023-06-14T02:46:06;3.75;;;3.10;;
72493;SDS011;60520;49.182;-0.348;2023-06-14T02:48:33;3.75;;;3.10;;
72493;SDS011;60520;49.182;-0.348;2023-06-14T02:51:01;4.28;;;3.13;;
72493;SDS011;60520;49.182;-0.348;2023-06-14T02:53:28;4.55;;;3.40;;
72493;SDS011;60520;49.182;-0.348;2023-06-14T02:55:55;3.78;;;3.30;;
72493;SDS011;60520;49.182;-0.348;2023-06-14T02:58:23;4.72;;;3.60;;
72493;SDS011;60520;49.182;-0.348;2023-06-14T03:00:50;4.68;;;3.28;;
72493;SDS011;60520;49.182;-0.348;2023-06-14T03:03:18;4.28;;;3.25;;
72493;SDS011;60520;49.182;-0.348;2023-06-14T03:05:47;4.90;;;3.63;;
72493;SDS011;60520;49.182;-0.348;2023-06-14T03:08:16;4.50;;;3.30;;
72493;SDS011;60520;49.182;-0.348;2023-06-14T03:10:45;4.10;;;3.20;;
72493;SDS011;60520;49.182;-0.348;2023-06-14T03:13:12;4.15;;;3.17;;
72493;SDS011;60520;49.182;-0.348;2023-06-14T03:15:40;4.05;;;3.42;;
72493;SDS011;60520;49.182;-0.348;2023-06-14T03:18:08;5.70;;;3.78;;
72493;SDS011;60520;49.182;-0.348;2023-06-14T03:20:35;4.68;;;3.33;;
72493;SDS011;60520;49.182;-0.348;2023-06-14T03:23:02;4.45;;;3.10;;
72493;SDS011;60520;49.182;-0.348;2023-06-14T03:25:31;4.35;;;3.30;;
72493;SDS011;60520;49.182;-0.348;2023-06-14T03:28:00;4.80;;;3.20;;
72493;SDS011;60520;49.182;-0.348;2023-06-14T03:30:27;3.58;;;3.25;;
72493;SDS011;60520;49.182;-0.348;2023-06-14T03:32:54;4.05;;;3.03;;
72493;SDS011;60520;49.182;-0.348;2023-06-14T03:35:22;5.13;;;3.17;;
72493;SDS011;60520;49.182;-0.348;2023-06-14T03:37:49;3.85;;;3.00;;
72493;SDS011;60520;49.182;-0.348;2023-06-14T03:40:17;3.80;;;2.90;;
72493;SDS011;60520;49.182;-0.348;2023-06-14T03:42:46;3.72;;;3.13;;
72493;SDS011;60520;49.182;-0.348;2023-06-14T03:45:13;3.80;;;2.97;;
72493;SDS011;60520;49.182;-0.348;2023-06-14T03:47:40;4.13;;;3.35;;
72493;SDS011;60520;49.182;-0.348;2023-06-14T03:50:07;4.45;;;3.25;;
72493;SDS011;60520;49.182;-0.348;2023-06-14T03:52:35;3.97;;;3.10;;
72493;SDS011;60520;49.182;-0.348;2023-06-14T03:55:02;5.80;;;3.28;;
72493;SDS011;60520;49.182;-0.348;2023-06-14T03:57:29;5.32;;;3.33;;
72493;SDS011;60520;49.182;-0.348;2023-06-14T03:59:58;4.53;;;3.30;;
72493;SDS011;60520;49.182;-0.348;2023-06-14T04:02:25;3.97;;;3.25;;
72493;SDS011;60520;49.182;-0.348;2023-06-14T04:04:53;3.33;;;2.97;;
72493;SDS011;60520;49.182;-0.348;2023-06-14T04:07:20;4.90;;;3.17;;
72493;SDS011;60520;49.182;-0.348;2023-06-14T04:09:48;5.10;;;3.08;;
72493;SDS011;60520;49.182;-0.348;2023-06-14T04:12:15;4.68;;;3.15;;
72493;SDS011;60520;49.182;-0.348;2023-06-14T04:14:42;4.93;;;3.15;;
72493;SDS011;60520;49.182;-0.348;2023-06-14T04:17:11;3.95;;;3.15;;
72493;SDS011;60520;49.182;-0.348;2023-06-14T04:19:38;5.07;;;3.30;;
72493;SDS011;60520;49.182;-0.348;2023-06-14T04:22:05;4.95;;;3.40;;
72493;SDS011;60520;49.182;-0.348;2023-06-14T04:24:33;4.60;;;3.10;;
72493;SDS011;60520;49.182;-0.348;2023-06-14T04:27:00;6.38;;;3.50;;
72493;SDS011;60520;49.182;-0.348;2023-06-14T04:29:27;6.10;;;3.58;;
72493;SDS011;60520;49.182;-0.348;2023-06-14T04:31:56;5.35;;;3.22;;
72493;SDS011;60520;49.182;-0.348;2023-06-14T04:34:26;4.03;;;2.70;;
72493;SDS011;60520;49.182;-0.348;2023-06-14T04:36:58;4.28;;;3.05;;
72493;SDS011;60520;49.182;-0.348;2023-06-14T04:39:26;4.97;;;3.75;;
72493;SDS011;60520;49.182;-0.348;2023-06-14T04:41:53;4.97;;;3.30;;
72493;SDS011;60520;49.182;-0.348;2023-06-14T04:44:22;3.75;;;2.97;;
72493;SDS011;60520;49.182;-0.348;2023-06-14T04:46:54;4.57;;;3.20;;
72493;SDS011;60520;49.182;-0.348;2023-06-14T04:49:22;4.40;;;2.78;;
72493;SDS011;60520;49.182;-0.348;2023-06-14T04:51:51;5.63;;;3.33;;
72493;SDS011;60520;49.182;-0.348;2023-06-14T04:54:24;4.05;;;2.90;;
72493;SDS011;60520;49.182;-0.348;2023-06-14T04:56:51;6.43;;;3.70;;
72493;SDS011;60520;49.182;-0.348;2023-06-14T04:59:20;4.22;;;3.38;;
72493;SDS011;60520;49.182;-0.348;2023-06-14T05:01:48;4.18;;;3.15;;
72493;SDS011;60520;49.182;-0.348;2023-06-14T05:04:15;4.72;;;3.10;;
72493;SDS011;60520;49.182;-0.348;2023-06-14T05:06:42;5.07;;;3.38;;
72493;SDS011;60520;49.182;-0.348;2023-06-14T05:09:11;4.75;;;2.83;;
72493;SDS011;60520;49.182;-0.348;2023-06-14T05:11:38;4.50;;;3.42;;
72493;SDS011;60520;49.182;-0.348;2023-06-14T05:14:07;3.88;;;3.08;;
72493;SDS011;60520;49.182;-0.348;2023-06-14T05:16:34;4.82;;;3.50;;
72493;SDS011;60520;49.182;-0.348;2023-06-14T05:19:02;3.55;;;2.67;;
72493;SDS011;60520;49.182;-0.348;2023-06-14T05:21:29;4.00;;;2.92;;
72493;SDS011;60520;49.182;-0.348;2023-06-14T05:23:57;4.57;;;3.10;;
72493;SDS011;60520;49.182;-0.348;2023-06-14T05:26:25;5.45;;;3.47;;
72493;SDS011;60520;49.182;-0.348;2023-06-14T05:28:53;6.25;;;2.80;;
72493;SDS011;60520;49.182;-0.348;2023-06-14T05:31:21;5.32;;;3.15;;
72493;SDS011;60520;49.182;-0.348;2023-06-14T05:33:49;3.97;;;3.20;;
72493;SDS011;60520;49.182;-0.348;2023-06-14T05:36:16;4.55;;;3.20;;
72493;SDS011;60520;49.182;-0.348;2023-06-14T05:38:43;5.40;;;3.33;;
72493;SDS011;60520;49.182;-0.348;2023-06-14T05:41:10;4.78;;;3.15;;
72493;SDS011;60520;49.182;-0.348;2023-06-14T05:43:39;4.68;;;3.17;;
72493;SDS011;60520;49.182;-0.348;2023-06-14T05:46:06;4.90;;;3.17;;
72493;SDS011;60520;49.182;-0.348;2023-06-14T05:48:33;4.80;;;3.13;;
72493;SDS011;60520;49.182;-0.348;2023-06-14T05:51:00;4.03;;;3.00;;
72493;SDS011;60520;49.182;-0.348;2023-06-14T05:53:27;3.47;;;2.67;;
72493;SDS011;60520;49.182;-0.348;2023-06-14T05:55:55;4.05;;;2.88;;
72493;SDS011;60520;49.182;-0.348;2023-06-14T05:58:22;4.60;;;2.95;;
72493;SDS011;60520;49.182;-0.348;2023-06-14T06:00:50;3.00;;;2.50;;
72493;SDS011;60520;49.182;-0.348;2023-06-14T06:03:18;4.05;;;2.75;;
72493;SDS011;60520;49.182;-0.348;2023-06-14T06:05:46;3.30;;;2.70;;
72493;SDS011;60520;49.182;-0.348;2023-06-14T06:08:13;6.43;;;3.15;;
72493;SDS011;60520;49.182;-0.348;2023-06-14T06:10:41;4.28;;;2.47;;
72493;SDS011;60520;49.182;-0.348;2023-06-14T06:13:08;3.45;;;2.70;;
72493;SDS011;60520;49.182;-0.348;2023-06-14T06:15:36;5.50;;;3.20;;
72493;SDS011;60520;49.182;-0.348;2023-06-14T06:18:04;3.28;;;2.72;;
72493;SDS011;60520;49.182;-0.348;2023-06-14T06:20:31;3.85;;;2.70;;
72493;SDS011;60520;49.182;-0.348;2023-06-14T06:22:58;3.70;;;2.40;;
72493;SDS011;60520;49.182;-0.348;2023-06-14T06:25:26;4.28;;;2.47;;
72493;SDS011;60520;49.182;-0.348;2023-06-14T06:27:53;3.63;;;2.78;;
72493;SDS011;60520;49.182;-0.348;2023-06-14T06:30:21;4.80;;;3.10;;
72493;SDS011;60520;49.182;-0.348;2023-06-14T06:32:48;4.00;;;2.88;;
72493;SDS011;60520;49.182;-0.348;2023-06-14T06:35:17;3.88;;;2.85;;
72493;SDS011;60520;49.182;-0.348;2023-06-14T06:37:44;4.00;;;2.75;;
72493;SDS011;60520;49.182;-0.348;2023-06-14T06:40:11;4.80;;;2.97;;
72493;SDS011;60520;49.182;-0.348;2023-06-14T06:42:38;3.72;;;2.72;;
72493;SDS011;60520;49.182;-0.348;2023-06-14T06:45:06;3.70;;;2.72;;
72493;SDS011;60520;49.182;-0.348;2023-06-14T06:47:33;4.47;;;2.67;;
72493;SDS011;60520;49.182;-0.348;2023-06-14T06:50:00;3.35;;;2.67;;
72493;SDS011;60520;49.182;-0.348;2023-06-14T06:52:28;3.50;;;2.70;;
72493;SDS011;60520;49.182;-0.348;2023-06-14T06:54:55;2.58;;;2.33;;
72493;SDS011;60520;49.182;-0.348;2023-06-14T06:57:23;4.22;;;2.78;;
72493;SDS011;60520;49.182;-0.348;2023-06-14T06:59:50;4.88;;;2.85;;
72493;SDS011;60520;49.182;-0.348;2023-06-14T07:02:17;3.78;;;2.55;;
72493;SDS011;60520;49.182;-0.348;2023-06-14T07:04:45;5.30;;;3.10;;
72493;SDS011;60520;49.182;-0.348;2023-06-14T07:07:12;4.32;;;2.90;;
72493;SDS011;60520;49.182;-0.348;2023-06-14T07:09:40;5.32;;;2.70;;
72493;SDS011;60520;49.182;-0.348;2023-06-14T07:12:08;3.42;;;2.50;;
72493;SDS011;60520;49.182;-0.348;2023-06-14T07:14:35;3.50;;;2.63;;
72493;SDS011;60520;49.182;-0.348;2023-06-14T07:17:02;3.90;;;2.60;;
72493;SDS011;60520;49.182;-0.348;2023-06-14T07:19:30;5.32;;;2.65;;
72493;SDS011;60520;49.182;-0.348;2023-06-14T07:21:58;3.22;;;2.30;;
72493;SDS011;60520;49.182;-0.348;2023-06-14T07:24:25;3.85;;;2.65;;
72493;SDS011;60520;49.182;-0.348;2023-06-14T07:26:54;4.32;;;2.60;;
72493;SDS011;60520;49.182;-0.348;2023-06-14T07:29:22;3.70;;;2.50;;
72493;SDS011;60520;49.182;-0.348;2023-06-14T07:31:49;4.25;;;2.95;;
72493;SDS011;60520;49.182;-0.348;2023-06-14T07:34:16;4.00;;;2.30;;
72493;SDS011;60520;49.182;-0.348;2023-06-14T07:36:43;3.63;;;2.45;;
72493;SDS011;60520;49.182;-0.348;2023-06-14T07:39:10;3.58;;;2.42;;
72493;SDS011;60520;49.182;-0.348;2023-06-14T07:41:37;4.35;;;2.85;;
72493;SDS011;60520;49.182;-0.348;2023-06-14T07:44:06;3.13;;;2.42;;
72493;SDS011;60520;49.182;-0.348;2023-06-14T07:46:33;4.57;;;2.60;;
72493;SDS011;60520;49.182;-0.348;2023-06-14T07:49:00;3.80;;;2.50;;
72493;SDS011;60520;49.182;-0.348;2023-06-14T07:51:27;4.22;;;2.55;;
72493;SDS011;60520;49.182;-0.348;2023-06-14T07:53:54;5.53;;;2.42;;
72493;SDS011;60520;49.182;-0.348;2023-06-14T07:56:22;4.97;;;2.78;;
72493;SDS011;60520;49.182;-0.348;2023-06-14T07:58:49;9.82;;;2.90;;
72493;SDS011;60520;49.182;-0.348;2023-06-14T08:01:17;4.97;;;2.70;;
72493;SDS011;60520;49.182;-0.348;2023-06-14T08:03:45;4.38;;;2.40;;
72493;SDS011;60520;49.182;-0.348;2023-06-14T08:06:12;6.53;;;2.67;;
72493;SDS011;60520;49.182;-0.348;2023-06-14T08:08:39;5.13;;;2.75;;
72493;SDS011;60520;49.182;-0.348;2023-06-14T08:11:06;5.65;;;2.88;;
72493;SDS011;60520;49.182;-0.348;2023-06-14T08:13:33;5.00;;;2.78;;
72493;SDS011;60520;49.182;-0.348;2023-06-14T08:16:00;4.85;;;2.53;;
72493;SDS011;60520;49.182;-0.348;2023-06-14T08:18:31;7.07;;;2.97;;
72493;SDS011;60520;49.182;-0.348;2023-06-14T08:20:58;5.13;;;2.70;;
72493;SDS011;60520;49.182;-0.348;2023-06-14T08:23:25;5.68;;;2.58;;
72493;SDS011;60520;49.182;-0.348;2023-06-14T08:25:52;4.53;;;2.63;;
72493;SDS011;60520;49.182;-0.348;2023-06-14T08:28:20;5.28;;;2.65;;
72493;SDS011;60520;49.182;-0.348;2023-06-14T08:30:47;5.70;;;2.60;;
72493;SDS011;60520;49.182;-0.348;2023-06-14T08:33:14;7.97;;;2.80;;
72493;SDS011;60520;49.182;-0.348;2023-06-14T08:35:43;4.82;;;2.85;;
72493;SDS011;60520;49.182;-0.348;2023-06-14T08:38:10;7.75;;;3.40;;
72493;SDS011;60520;49.182;-0.348;2023-06-14T08:40:37;5.50;;;2.78;;
72493;SDS011;60520;49.182;-0.348;2023-06-14T08:43:04;5.93;;;2.92;;
72493;SDS011;60520;49.182;-0.348;2023-06-14T08:45:32;5.47;;;2.75;;
72493;SDS011;60520;49.182;-0.348;2023-06-14T08:47:59;5.90;;;2.83;;
72493;SDS011;60520;49.182;-0.348;2023-06-14T08:50:28;5.50;;;2.70;;
72493;SDS011;60520;49.182;-0.348;2023-06-14T08:52:57;8.15;;;2.92;;
72493;SDS011;60520;49.182;-0.348;2023-06-14T08:55:26;5.63;;;2.95;;
72493;SDS011;60520;49.182;-0.348;2023-06-14T08:57:54;9.88;;;2.88;;
72493;SDS011;60520;49.182;-0.348;2023-06-14T09:00:22;7.18;;;3.25;;
72493;SDS011;60520;49.182;-0.348;2023-06-14T09:02:50;5.20;;;3.03;;
72493;SDS011;60520;49.182;-0.348;2023-06-14T09:05:20;6.05;;;3.15;;
72493;SDS011;60520;49.182;-0.348;2023-06-14T09:07:48;10.15;;;3.42;;
72493;SDS011;60520;49.182;-0.348;2023-06-14T09:10:16;13.18;;;4.05;;
72493;SDS011;60520;49.182;-0.348;2023-06-14T09:12:44;23.15;;;5.20;;
72493;SDS011;60520;49.182;-0.348;2023-06-14T09:15:11;25.38;;;5.38;;
72493;SDS011;60520;49.182;-0.348;2023-06-14T09:17:39;19.88;;;5.72;;
72493;SDS011;60520;49.182;-0.348;2023-06-14T09:20:07;19.88;;;5.35;;
72493;SDS011;60520;49.182;-0.348;2023-06-14T09:22:37;17.02;;;5.57;;
72493;SDS011;60520;49.182;-0.348;2023-06-14T09:25:05;24.05;;;5.95;;
72493;SDS011;60520;49.182;-0.348;2023-06-14T09:27:34;21.00;;;5.43;;
72493;SDS011;60520;49.182;-0.348;2023-06-14T09:30:05;20.33;;;5.03;;
72493;SDS011;60520;49.182;-0.348;2023-06-14T09:32:35;21.33;;;5.53;;
72493;SDS011;60520;49.182;-0.348;2023-06-14T09:35:03;17.20;;;5.28;;
72493;SDS011;60520;49.182;-0.348;2023-06-14T09:37:30;17.55;;;5.20;;
72493;SDS011;60520;49.182;-0.348;2023-06-14T09:39:58;17.02;;;5.75;;
72493;SDS011;60520;49.182;-0.348;2023-06-14T09:42:25;17.30;;;5.10;;
72493;SDS011;60520;49.182;-0.348;2023-06-14T09:44:55;16.88;;;5.38;;
72493;SDS011;60520;49.182;-0.348;2023-06-14T09:47:22;14.43;;;5.22;;
72493;SDS011;60520;49.182;-0.348;2023-06-14T09:49:50;18.42;;;5.72;;
72493;SDS011;60520;49.182;-0.348;2023-06-14T09:52:19;19.90;;;5.78;;
72493;SDS011;60520;49.182;-0.348;2023-06-14T09:54:47;18.08;;;5.35;;
72493;SDS011;60520;49.182;-0.348;2023-06-14T09:57:15;21.38;;;5.47;;
72493;SDS011;60520;49.182;-0.348;2023-06-14T09:59:43;17.08;;;5.85;;
72493;SDS011;60520;49.182;-0.348;2023-06-14T10:02:14;19.95;;;5.55;;
72493;SDS011;60520;49.182;-0.348;2023-06-14T10:04:46;19.33;;;5.20;;
72493;SDS011;60520;49.182;-0.348;2023-06-14T10:07:14;15.05;;;5.10;;
72493;SDS011;60520;49.182;-0.348;2023-06-14T10:09:42;16.13;;;5.03;;
72493;SDS011;60520;49.182;-0.348;2023-06-14T10:12:13;19.25;;;5.55;;
72493;SDS011;60520;49.182;-0.348;2023-06-14T10:14:45;22.60;;;6.15;;
72493;SDS011;60520;49.182;-0.348;2023-06-14T10:17:18;18.95;;;5.43;;
72493;SDS011;60520;49.182;-0.348;2023-06-14T10:19:48;16.90;;;5.25;;
72493;SDS011;60520;49.182;-0.348;2023-06-14T10:22:19;17.48;;;5.55;;
72493;SDS011;60520;49.182;-0.348;2023-06-14T10:24:50;14.25;;;5.05;;
72493;SDS011;60520;49.182;-0.348;2023-06-14T10:27:17;18.67;;;5.10;;
72493;SDS011;60520;49.182;-0.348;2023-06-14T10:30:05;19.50;;;5.50;;
72493;SDS011;60520;49.182;-0.348;2023-06-14T10:32:34;18.27;;;4.80;;
72493;SDS011;60520;49.182;-0.348;2023-06-14T10:35:02;11.55;;;4.90;;
72493;SDS011;60520;49.182;-0.348;2023-06-14T10:37:31;19.63;;;5.57;;
72493;SDS011;60520;49.182;-0.348;2023-06-14T10:39:59;15.93;;;5.35;;
72493;SDS011;60520;49.182;-0.348;2023-06-14T10:42:31;17.02;;;5.28;;
72493;SDS011;60520;49.182;-0.348;2023-06-14T10:44:59;20.75;;;4.88;;
72493;SDS011;60520;49.182;-0.348;2023-06-14T10:47:27;16.13;;;5.30;;
72493;SDS011;60520;49.182;-0.348;2023-06-14T10:49:57;15.10;;;4.93;;
72493;SDS011;60520;49.182;-0.348;2023-06-14T10:52:32;15.07;;;5.10;;
72493;SDS011;60520;49.182;-0.348;2023-06-14T10:55:01;14.02;;;4.72;;
72493;SDS011;60520;49.182;-0.348;2023-06-14T10:57:30;14.23;;;5.13;;
72493;SDS011;60520;49.182;-0.348;2023-06-14T10:59:58;18.27;;;5.10;;
72493;SDS011;60520;49.182;-0.348;2023-06-14T11:02:37;15.23;;;5.18;;
72493;SDS011;60520;49.182;-0.348;2023-06-14T11:05:14;13.48;;;5.00;;
72493;SDS011;60520;49.182;-0.348;2023-06-14T11:07:43;15.50;;;4.88;;
72493;SDS011;60520;49.182;-0.348;2023-06-14T11:10:17;13.02;;;4.93;;
72493;SDS011;60520;49.182;-0.348;2023-06-14T11:12:49;14.95;;;5.45;;
72493;SDS011;60520;49.182;-0.348;2023-06-14T11:15:17;16.38;;;5.43;;
72493;SDS011;60520;49.182;-0.348;2023-06-14T11:17:49;14.38;;;5.32;;
72493;SDS011;60520;49.182;-0.348;2023-06-14T11:20:19;20.35;;;5.32;;
72493;SDS011;60520;49.182;-0.348;2023-06-14T11:22:47;13.70;;;5.13;;
72493;SDS011;60520;49.182;-0.348;2023-06-14T11:25:14;10.95;;;4.85;;
72493;SDS011;60520;49.182;-0.348;2023-06-14T11:27:41;13.05;;;4.90;;
72493;SDS011;60520;49.182;-0.348;2023-06-14T11:30:09;14.32;;;4.75;;
72493;SDS011;60520;49.182;-0.348;2023-06-14T11:32:37;13.10;;;5.28;;
72493;SDS011;60520;49.182;-0.348;2023-06-14T11:35:04;11.73;;;4.55;;
72493;SDS011;60520;49.182;-0.348;2023-06-14T11:37:33;16.00;;;5.30;;
72493;SDS011;60520;49.182;-0.348;2023-06-14T11:40:00;13.75;;;4.85;;
72493;SDS011;60520;49.182;-0.348;2023-06-14T11:42:28;12.98;;;5.18;;
72493;SDS011;60520;49.182;-0.348;2023-06-14T11:44:55;18.50;;;5.13;;
72493;SDS011;60520;49.182;-0.348;2023-06-14T11:47:23;14.55;;;4.68;;
72493;SDS011;60520;49.182;-0.348;2023-06-14T11:49:50;16.77;;;5.00;;
72493;SDS011;60520;49.182;-0.348;2023-06-14T11:52:17;14.45;;;4.97;;
72493;SDS011;60520;49.182;-0.348;2023-06-14T11:54:46;23.30;;;5.47;;
72493;SDS011;60520;49.182;-0.348;2023-06-14T11:57:14;14.50;;;4.75;;
72493;SDS011;60520;49.182;-0.348;2023-06-14T11:59:41;18.00;;;5.30;;
72493;SDS011;60520;49.182;-0.348;2023-06-14T12:02:09;16.23;;;5.40;;
72493;SDS011;60520;49.182;-0.348;2023-06-14T12:04:36;12.80;;;5.18;;
72493;SDS011;60520;49.182;-0.348;2023-06-14T12:07:10;17.08;;;5.55;;
72493;SDS011;60520;49.182;-0.348;2023-06-14T12:09:40;17.67;;;6.15;;
72493;SDS011;60520;49.182;-0.348;2023-06-14T12:12:11;21.50;;;5.68;;
72493;SDS011;60520;49.182;-0.348;2023-06-14T12:14:41;18.80;;;5.45;;
72493;SDS011;60520;49.182;-0.348;2023-06-14T12:17:08;18.65;;;5.05;;
72493;SDS011;60520;49.182;-0.348;2023-06-14T12:19:41;16.95;;;5.20;;
72493;SDS011;60520;49.182;-0.348;2023-06-14T12:22:09;19.67;;;5.50;;
72493;SDS011;60520;49.182;-0.348;2023-06-14T12:24:36;17.67;;;6.68;;
72493;SDS011;60520;49.182;-0.348;2023-06-14T12:27:04;18.77;;;6.25;;
72493;SDS011;60520;49.182;-0.348;2023-06-14T12:29:33;13.50;;;5.47;;
72493;SDS011;60520;49.182;-0.348;2023-06-14T12:32:01;15.07;;;5.55;;
72493;SDS011;60520;49.182;-0.348;2023-06-14T12:34:28;16.08;;;5.68;;
72493;SDS011;60520;49.182;-0.348;2023-06-14T12:36:56;21.60;;;6.32;;
72493;SDS011;60520;49.182;-0.348;2023-06-14T12:39:23;20.52;;;7.63;;
72493;SDS011;60520;49.182;-0.348;2023-06-14T12:41:50;21.73;;;6.30;;
72493;SDS011;60520;49.182;-0.348;2023-06-14T12:44:18;14.18;;;5.90;;
72493;SDS011;60520;49.182;-0.348;2023-06-14T12:46:46;12.27;;;5.45;;
72493;SDS011;60520;49.182;-0.348;2023-06-14T12:49:13;13.57;;;5.18;;
72493;SDS011;60520;49.182;-0.348;2023-06-14T12:51:40;15.05;;;5.43;;
72493;SDS011;60520;49.182;-0.348;2023-06-14T12:54:08;15.80;;;5.53;;
72493;SDS011;60520;49.182;-0.348;2023-06-14T12:56:35;16.75;;;5.47;;
72493;SDS011;60520;49.182;-0.348;2023-06-14T12:59:02;13.98;;;5.68;;
72493;SDS011;60520;49.182;-0.348;2023-06-14T13:01:29;11.25;;;5.28;;
72493;SDS011;60520;49.182;-0.348;2023-06-14T13:03:58;12.50;;;5.20;;
72493;SDS011;60520;49.182;-0.348;2023-06-14T13:06:25;15.20;;;4.97;;
72493;SDS011;60520;49.182;-0.348;2023-06-14T13:08:54;14.45;;;5.38;;
72493;SDS011;60520;49.182;-0.348;2023-06-14T13:11:22;14.88;;;5.30;;
72493;SDS011;60520;49.182;-0.348;2023-06-14T13:13:50;15.55;;;5.47;;
72493;SDS011;60520;49.182;-0.348;2023-06-14T13:16:17;19.02;;;5.68;;
72493;SDS011;60520;49.182;-0.348;2023-06-14T13:18:44;15.85;;;4.95;;
72493;SDS011;60520;49.182;-0.348;2023-06-14T13:21:12;14.82;;;5.47;;
72493;SDS011;60520;49.182;-0.348;2023-06-14T13:23:40;13.80;;;5.05;;
72493;SDS011;60520;49.182;-0.348;2023-06-14T13:26:07;15.00;;;5.97;;
72493;SDS011;60520;49.182;-0.348;2023-06-14T13:28:34;15.55;;;5.28;;
72493;SDS011;60520;49.182;-0.348;2023-06-14T13:31:02;12.85;;;5.00;;
72493;SDS011;60520;49.182;-0.348;2023-06-14T13:33:29;16.58;;;5.05;;
72493;SDS011;60520;49.182;-0.348;2023-06-14T13:35:56;15.35;;;6.28;;
72493;SDS011;60520;49.182;-0.348;2023-06-14T13:38:24;11.60;;;5.32;;
72493;SDS011;60520;49.182;-0.348;2023-06-14T13:40:51;14.48;;;5.15;;
72493;SDS011;60520;49.182;-0.348;2023-06-14T13:43:19;16.30;;;5.13;;
72493;SDS011;60520;49.182;-0.348;2023-06-14T13:45:47;15.25;;;5.25;;
72493;SDS011;60520;49.182;-0.348;2023-06-14T13:48:15;14.25;;;5.45;;
72493;SDS011;60520;49.182;-0.348;2023-06-14T13:50:42;15.75;;;5.35;;
72493;SDS011;60520;49.182;-0.348;2023-06-14T13:53:09;11.88;;;5.55;;
72493;SDS011;60520;49.182;-0.348;2023-06-14T13:55:38;16.48;;;5.35;;
72493;SDS011;60520;49.182;-0.348;2023-06-14T13:58:05;12.48;;;5.07;;
72493;SDS011;60520;49.182;-0.348;2023-06-14T14:00:32;13.60;;;4.85;;
72493;SDS011;60520;49.182;-0.348;2023-06-14T14:03:02;13.30;;;5.07;;
72493;SDS011;60520;49.182;-0.348;2023-06-14T14:05:30;13.25;;;5.18;;
72493;SDS011;60520;49.182;-0.348;2023-06-14T14:07:58;11.90;;;5.05;;
72493;SDS011;60520;49.182;-0.348;2023-06-14T14:10:25;10.90;;;5.03;;
72493;SDS011;60520;49.182;-0.348;2023-06-14T14:12:54;12.32;;;4.75;;
72493;SDS011;60520;49.182;-0.348;2023-06-14T14:15:21;18.90;;;6.03;;
72493;SDS011;60520;49.182;-0.348;2023-06-14T14:17:49;15.32;;;5.05;;
72493;SDS011;60520;49.182;-0.348;2023-06-14T14:20:16;10.77;;;4.45;;
72493;SDS011;60520;49.182;-0.348;2023-06-14T14:22:43;12.75;;;5.55;;
72493;SDS011;60520;49.182;-0.348;2023-06-14T14:25:10;12.43;;;5.50;;
72493;SDS011;60520;49.182;-0.348;2023-06-14T14:27:37;11.02;;;4.90;;
72493;SDS011;60520;49.182;-0.348;2023-06-14T14:30:06;14.20;;;5.18;;
72493;SDS011;60520;49.182;-0.348;2023-06-14T14:32:33;11.93;;;4.60;;